Time;durP1;ratioP1;P1;durP2;ratioP2;P2;SDS_P1;SDS_P2;PMS_P1;PMS_P2;Temp;Humidity;BMP_temperature;BMP_pressure;BME280_temperature;BME280_humidity;BME280_pressure;Samples;Min_cycle;Max_cycle;Signal;HPM_P1;HPM_P2
2021/04/13 00:02:26;;;;;;;4.17;3.77;;;1.30;89.80;;;;;;4989524;28;20216;-71
2021/04/13 00:05:09;;;;;;;4.57;3.37;;;1.20;89.20;;;;;;4995889;28;20320;-71
2021/04/13 00:07:41;;;;;;;4.50;3.60;;;1.20;89.70;;;;;;4989056;28;20595;-71
2021/04/13 00:10:33;;;;;;;4.90;3.43;;;1.20;90.00;;;;;;4967229;28;20226;-71
2021/04/13 00:13:00;;;;;;;3.20;3.00;;;1.20;89.90;;;;;;4986472;28;20291;-71
2021/04/13 00:15:49;;;;;;;3.37;2.97;;;1.10;89.70;;;;;;4968206;28;20229;-71
2021/04/13 00:18:19;;;;;;;5.90;4.00;;;1.00;90.00;;;;;;4985743;28;20323;-71
2021/04/13 00:21:08;;;;;;;3.77;3.30;;;1.00;90.70;;;;;;4983687;28;20563;-72
2021/04/13 00:23:34;;;;;;;4.17;3.33;;;1.00;90.80;;;;;;4992617;28;20251;-71
2021/04/13 00:26:03;;;;;;;3.83;3.37;;;1.00;91.00;;;;;;4993374;28;20228;-71
2021/04/13 00:28:36;;;;;;;4.17;3.63;;;0.90;91.00;;;;;;4988155;28;20235;-72
2021/04/13 00:31:05;;;;;;;5.87;4.40;;;0.90;91.40;;;;;;4971567;28;20626;-71
2021/04/13 00:33:33;;;;;;;5.03;3.40;;;0.90;91.50;;;;;;4975997;28;20197;-72
2021/04/13 00:36:11;;;;;;;4.57;3.97;;;0.90;91.50;;;;;;4979513;28;20644;-71
2021/04/13 00:38:36;;;;;;;4.33;3.93;;;0.90;91.50;;;;;;4988763;28;20216;-71
2021/04/13 00:41:22;;;;;;;5.70;5.00;;;0.90;91.60;;;;;;4991463;28;20328;-71
2021/04/13 00:44:08;;;;;;;4.00;3.70;;;0.90;91.70;;;;;;4973672;28;20275;-72
2021/04/13 00:46:39;;;;;;;5.83;3.57;;;0.90;91.80;;;;;;4973428;28;20224;-71
2021/04/13 00:49:05;;;;;;;4.43;4.03;;;0.80;91.90;;;;;;4974265;28;20245;-72
2021/04/13 00:51:41;;;;;;;4.53;3.73;;;0.80;92.00;;;;;;4974996;28;20262;-72
2021/04/13 00:54:26;;;;;;;4.53;3.43;;;0.80;92.10;;;;;;4975561;28;20286;-72
2021/04/13 00:56:52;;;;;;;4.03;3.37;;;0.80;91.90;;;;;;4986617;28;20231;-72
2021/04/13 00:59:21;;;;;;;3.90;3.60;;;0.80;91.50;;;;;;4982870;28;20196;-71
2021/04/13 01:01:57;;;;;;;4.80;3.70;;;0.80;91.50;;;;;;4985947;28;20232;-72
2021/04/13 01:04:32;;;;;;;5.77;3.33;;;0.70;91.10;;;;;;4988159;28;20259;-72
2021/04/13 01:07:26;;;;;;;4.80;4.10;;;0.60;91.30;;;;;;4985281;28;20242;-72
2021/04/13 01:09:57;;;;;;;3.67;3.33;;;0.60;91.30;;;;;;4988044;28;20221;-71
2021/04/13 01:12:28;;;;;;;3.40;2.83;;;0.60;91.60;;;;;;4964999;28;20252;-71
2021/04/13 01:14:55;;;;;;;6.87;3.20;;;0.80;91.90;;;;;;4974120;28;20239;-71
2021/04/13 01:17:25;;;;;;;3.77;3.10;;;0.70;91.70;;;;;;4988184;28;20726;-72
2021/04/13 01:20:15;;;;;;;5.03;3.47;;;0.70;91.70;;;;;;4986839;28;20220;-71
2021/04/13 01:23:03;;;;;;;4.33;3.83;;;0.70;91.20;;;;;;4961973;28;20280;-71
2021/04/13 01:25:36;;;;;;;4.97;2.90;;;0.60;91.30;;;;;;4985953;28;20591;-71
2021/04/13 01:28:12;;;;;;;4.20;3.50;;;0.50;91.40;;;;;;4989330;28;20235;-72
2021/04/13 01:30:56;;;;;;;5.03;4.00;;;0.50;91.60;;;;;;4984490;28;20335;-71
2021/04/13 01:33:40;;;;;;;3.90;3.00;;;0.40;91.80;;;;;;4991384;28;20731;-71
2021/04/13 01:36:24;;;;;;;5.33;3.63;;;0.40;91.80;;;;;;4973372;28;20315;-72
2021/04/13 01:39:07;;;;;;;4.67;3.83;;;0.40;92.10;;;;;;4970798;28;20653;-71
2021/04/13 01:42:00;;;;;;;4.93;4.10;;;0.40;92.30;;;;;;4973283;28;20200;-72
2021/04/13 01:44:54;;;;;;;4.10;3.70;;;0.40;92.50;;;;;;4987175;28;20401;-71
2021/04/13 01:47:22;;;;;;;3.97;3.57;;;0.40;92.70;;;;;;4967678;28;20232;-73
2021/04/13 01:49:51;;;;;;;3.67;2.80;;;0.30;92.30;;;;;;4986600;28;20189;-71
2021/04/13 01:52:33;;;;;;;4.13;3.30;;;0.40;92.10;;;;;;4975490;28;20235;-71
2021/04/13 01:55:24;;;;;;;3.73;3.13;;;0.40;91.20;;;;;;4981642;28;20311;-71
2021/04/13 01:57:56;;;;;;;5.03;3.37;;;0.30;91.40;;;;;;4989203;28;20764;-71
2021/04/13 02:00:35;;;;;;;3.83;3.50;;;0.30;91.50;;;;;;4987552;28;20235;-72
2021/04/13 02:03:19;;;;;;;4.10;3.17;;;0.30;91.20;;;;;;4985979;28;20278;-71
2021/04/13 02:05:51;;;;;;;4.90;3.87;;;0.20;91.20;;;;;;4983863;28;20575;-71
2021/04/13 02:08:28;;;;;;;5.37;3.70;;;0.10;91.50;;;;;;4988069;28;20547;-72
2021/04/13 02:10:53;;;;;;;3.27;2.87;;;0.10;91.60;;;;;;4972615;28;20228;-72
2021/04/13 02:13:22;;;;;;;4.20;3.67;;;0.20;91.90;;;;;;4984625;28;20255;-71
2021/04/13 02:16:10;;;;;;;3.50;3.03;;;0.00;91.90;;;;;;4985412;28;20223;-71
2021/04/13 02:18:42;;;;;;;4.10;3.20;;;0.00;92.30;;;;;;4989804;28;20196;-71
2021/04/13 02:21:16;;;;;;;7.70;2.90;;;0.00;92.30;;;;;;4990755;28;20314;-71
2021/04/13 02:23:46;;;;;;;3.10;2.80;;;0.00;92.40;;;;;;4988386;28;20194;-71
2021/04/13 02:26:13;;;;;;;5.00;3.83;;;0.10;92.90;;;;;;4989197;28;20181;-71
2021/04/13 02:28:40;;;;;;;4.77;3.63;;;0.10;92.60;;;;;;4988559;28;20304;-72
2021/04/13 02:31:11;;;;;;;5.30;3.20;;;0.20;92.60;;;;;;4985322;28;20228;-71
2021/04/13 02:33:42;;;;;;;2.43;2.23;;;0.20;92.50;;;;;;4986166;28;20232;-72
2021/04/13 02:36:27;;;;;;;2.87;2.63;;;0.10;92.80;;;;;;4985010;28;20287;-71
2021/04/13 02:38:54;;;;;;;4.87;3.93;;;0.10;92.90;;;;;;4986811;28;20291;-72
2021/04/13 02:41:45;;;;;;;4.53;4.17;;;0.10;92.90;;;;;;4988252;28;20644;-72
2021/04/13 02:44:15;;;;;;;3.23;2.97;;;0.10;92.90;;;;;;4987045;28;20209;-71
2021/04/13 02:46:41;;;;;;;3.83;3.53;;;0.00;92.90;;;;;;4984989;28;20276;-71
2021/04/13 02:49:12;;;;;;;4.43;4.00;;;-0.10;93.10;;;;;;4986389;28;20259;-71
2021/04/13 02:51:57;;;;;;;3.43;3.13;;;-0.10;93.20;;;;;;4970424;28;20254;-72
2021/04/13 02:54:31;;;;;;;3.63;3.30;;;-0.20;93.50;;;;;;4965000;28;20243;-72
2021/04/13 02:57:01;;;;;;;3.93;3.20;;;-0.20;93.70;;;;;;4988123;28;20188;-71
2021/04/13 02:59:31;;;;;;;4.30;3.83;;;-0.10;94.40;;;;;;4969506;28;20205;-71
2021/04/13 03:02:06;;;;;;;4.70;3.77;;;0.00;93.90;;;;;;4966222;28;20263;-71
2021/04/13 03:04:50;;;;;;;6.07;3.77;;;0.00;93.60;;;;;;4980448;28;20727;-71
2021/04/13 03:07:21;;;;;;;3.40;3.07;;;0.00;93.80;;;;;;4987487;28;20683;-72
2021/04/13 03:09:49;;;;;;;4.83;4.37;;;0.00;93.80;;;;;;4986952;28;20224;-71
2021/04/13 03:12:15;;;;;;;4.53;3.87;;;0.10;94.10;;;;;;4989215;28;20383;-71
2021/04/13 03:14:49;;;;;;;5.33;4.10;;;0.00;93.50;;;;;;4987714;28;21113;-72
2021/04/13 03:17:19;;;;;;;4.17;3.77;;;-0.10;93.80;;;;;;4982528;28;20181;-71
2021/04/13 03:19:47;;;;;;;6.27;4.30;;;-0.10;93.80;;;;;;4985544;28;20220;-71
2021/04/13 03:22:15;;;;;;;4.37;3.50;;;-0.20;94.10;;;;;;4969826;28;20315;-71
2021/04/13 03:24:43;;;;;;;4.70;4.10;;;-0.20;94.30;;;;;;4989546;28;20200;-71
2021/04/13 03:27:13;;;;;;;6.57;4.17;;;-0.20;94.50;;;;;;4989399;28;21095;-72
2021/04/13 03:29:55;;;;;;;7.57;5.13;;;-0.20;94.50;;;;;;4988883;28;20714;-71
2021/04/13 03:32:24;;;;;;;5.87;3.93;;;-0.20;94.70;;;;;;4987655;28;20236;-71
2021/04/13 03:34:50;;;;;;;5.43;4.80;;;-0.30;94.60;;;;;;4989920;28;20247;-72
2021/04/13 03:37:17;;;;;;;4.13;3.53;;;-0.30;94.80;;;;;;4986684;28;20224;-71
2021/04/13 03:39:44;;;;;;;4.50;4.10;;;-0.30;94.90;;;;;;4969446;28;20228;-71
2021/04/13 03:42:19;;;;;;;4.80;3.73;;;-0.30;95.10;;;;;;4987244;28;20236;-72
2021/04/13 03:44:45;;;;;;;5.93;3.40;;;-0.30;95.20;;;;;;4984559;28;20194;-71
2021/04/13 03:47:18;;;;;;;6.20;4.73;;;-0.30;95.20;;;;;;4990159;28;20185;-72
2021/04/13 03:49:45;;;;;;;5.70;3.73;;;-0.30;95.40;;;;;;4987905;28;20224;-71
2021/04/13 03:52:30;;;;;;;5.43;4.10;;;-0.30;95.20;;;;;;4969604;28;20236;-71
2021/04/13 03:54:56;;;;;;;5.77;3.90;;;-0.30;95.30;;;;;;4969811;28;20294;-71
2021/04/13 03:57:31;;;;;;;6.50;4.50;;;-0.30;94.90;;;;;;4988141;28;20216;-71
2021/04/13 03:59:58;;;;;;;4.70;4.27;;;-0.40;94.80;;;;;;4987561;28;20202;-71
2021/04/13 04:02:24;;;;;;;4.47;3.50;;;-0.40;94.60;;;;;;4984540;28;20199;-71
2021/04/13 04:05:14;;;;;;;4.73;3.70;;;-0.50;93.60;;;;;;4983956;28;20221;-71
2021/04/13 04:08:05;;;;;;;5.53;3.97;;;-0.50;93.80;;;;;;4985793;28;20270;-71
2021/04/13 04:10:46;;;;;;;2.83;2.63;;;-0.50;94.00;;;;;;4987279;28;20699;-72
2021/04/13 04:13:15;;;;;;;4.73;4.20;;;-0.60;93.80;;;;;;4985534;28;20242;-71
2021/04/13 04:16:01;;;;;;;5.53;4.13;;;-0.60;93.90;;;;;;4989324;28;20224;-72
2021/04/13 04:18:40;;;;;;;4.20;3.60;;;-0.60;94.30;;;;;;4973315;28;20270;-72
2021/04/13 04:21:38;;;;;;;6.23;4.40;;;-0.50;94.60;;;;;;4982800;28;20232;-72
2021/04/13 04:24:22;;;;;;;4.63;4.23;;;-0.40;95.30;;;;;;4986600;28;23703;-71
2021/04/13 04:27:18;;;;;;;4.03;3.63;;;-0.40;94.90;;;;;;4986042;28;20206;-71
2021/04/13 04:29:48;;;;;;;5.63;3.60;;;-0.40;94.90;;;;;;4970256;28;20622;-70
2021/04/13 04:32:27;;;;;;;4.13;3.27;;;-0.40;95.20;;;;;;4975716;28;20223;-71
2021/04/13 04:34:55;;;;;;;5.17;4.30;;;-0.40;95.40;;;;;;4987244;28;20821;-70
2021/04/13 04:37:24;;;;;;;5.93;4.33;;;-0.30;96.00;;;;;;4990796;28;20805;-71
2021/04/13 04:40:13;;;;;;;4.77;4.27;;;-0.30;95.70;;;;;;4989889;28;20699;-71
2021/04/13 04:42:54;;;;;;;6.13;4.73;;;-0.30;95.80;;;;;;4990368;28;20231;-71
2021/04/13 04:45:37;;;;;;;5.43;4.40;;;-0.20;96.00;;;;;;4989141;28;20232;-70
2021/04/13 04:48:21;;;;;;;6.33;4.60;;;-0.20;96.00;;;;;;4973454;28;20287;-72
2021/04/13 04:50:47;;;;;;;4.73;3.83;;;-0.20;96.20;;;;;;4977719;28;20287;-72
2021/04/13 04:53:17;;;;;;;3.90;3.40;;;-0.20;96.20;;;;;;4992775;28;20299;-71
2021/04/13 04:55:43;;;;;;;5.83;5.00;;;-0.10;96.20;;;;;;4989081;28;20236;-72
2021/04/13 04:58:08;;;;;;;6.17;4.17;;;-0.10;96.20;;;;;;4989095;28;20243;-68
2021/04/13 05:00:34;;;;;;;9.40;5.37;;;0.00;96.30;;;;;;4982356;28;20232;-69
2021/04/13 05:03:00;;;;;;;4.70;4.20;;;0.00;96.20;;;;;;4971998;28;20232;-68
2021/04/13 05:05:25;;;;;;;4.80;3.20;;;0.20;95.50;;;;;;4977854;28;20216;-69
2021/04/13 05:07:51;;;;;;;5.73;4.87;;;0.30;95.70;;;;;;4988487;28;20303;-69
2021/04/13 05:10:17;;;;;;;10.03;5.70;;;0.30;95.10;;;;;;4967652;28;23594;-69
2021/04/13 05:12:43;;;;;;;14.17;6.70;;;0.40;94.70;;;;;;4986418;28;20295;-72
2021/04/13 05:15:10;;;;;;;7.03;5.63;;;0.40;94.50;;;;;;4989029;28;20303;-69
2021/04/13 05:17:36;;;;;;;8.03;5.80;;;0.30;94.30;;;;;;4989225;28;20295;-69
2021/04/13 05:20:02;;;;;;;6.80;4.77;;;0.30;94.40;;;;;;4985694;28;20731;-69
2021/04/13 05:22:28;;;;;;;5.77;4.00;;;0.40;94.60;;;;;;4984843;28;20224;-70
2021/04/13 05:24:54;;;;;;;6.13;5.60;;;0.50;94.30;;;;;;4986720;28;20303;-67
2021/04/13 05:27:19;;;;;;;5.23;4.73;;;0.60;94.50;;;;;;4990330;28;20242;-69
2021/04/13 05:29:45;;;;;;;7.97;5.33;;;0.60;93.50;;;;;;4990354;28;20602;-69
2021/04/13 05:32:10;;;;;;;7.87;5.30;;;0.60;93.10;;;;;;4986271;28;20668;-69
2021/04/13 05:34:36;;;;;;;6.50;5.90;;;0.70;92.90;;;;;;4990261;28;20239;-69
2021/04/13 05:37:02;;;;;;;8.87;6.20;;;0.80;91.90;;;;;;4990427;28;20645;-69
2021/04/13 05:39:28;;;;;;;7.50;5.97;;;0.80;91.10;;;;;;4986662;28;20719;-69
2021/04/13 05:41:55;;;;;;;12.00;4.80;;;0.80;90.40;;;;;;4973063;28;20279;-69
2021/04/13 05:44:21;;;;;;;6.30;5.50;;;0.80;90.20;;;;;;4965460;28;20196;-69
2021/04/13 05:46:48;;;;;;;7.43;5.83;;;0.90;89.50;;;;;;4986642;28;20220;-69
2021/04/13 05:49:14;;;;;;;6.40;4.67;;;1.00;88.50;;;;;;4989920;28;20240;-69
2021/04/13 05:51:40;;;;;;;7.73;6.30;;;0.90;88.10;;;;;;4973752;28;20293;-69
2021/04/13 05:54:06;;;;;;;8.30;5.20;;;1.00;87.90;;;;;;4988366;28;20366;-69
2021/04/13 05:56:38;;;;;;;7.27;5.33;;;1.00;88.30;;;;;;4972731;28;20735;-69
2021/04/13 05:59:06;;;;;;;9.40;6.33;;;1.00;89.00;;;;;;4987217;28;20227;-69
2021/04/13 06:01:33;;;;;;;10.03;6.23;;;1.00;87.60;;;;;;4986480;28;20700;-69
2021/04/13 06:03:59;;;;;;;8.07;6.57;;;1.00;87.40;;;;;;4986947;28;20307;-69
2021/04/13 06:06:25;;;;;;;11.47;7.53;;;1.10;86.50;;;;;;4978785;28;20371;-69
2021/04/13 06:08:50;;;;;;;10.03;7.20;;;1.10;87.50;;;;;;4971778;28;20279;-69
2021/04/13 06:11:26;;;;;;;18.03;6.77;;;1.10;87.80;;;;;;4977119;28;20243;-69
2021/04/13 06:13:54;;;;;;;8.63;7.10;;;1.20;88.40;;;;;;4987993;28;20631;-70
2021/04/13 06:16:21;;;;;;;8.50;7.17;;;1.30;85.60;;;;;;4988197;28;20240;-69
2021/04/13 06:18:47;;;;;;;8.87;6.33;;;1.30;85.90;;;;;;4987235;28;20319;-70
2021/04/13 06:21:13;;;;;;;8.87;6.77;;;1.40;86.10;;;;;;4987121;28;20371;-70
2021/04/13 06:23:38;;;;;;;12.10;8.13;;;1.50;85.60;;;;;;4988149;28;20656;-70
2021/04/13 06:26:04;;;;;;;9.07;7.83;;;1.70;84.60;;;;;;4986032;28;20719;-69
2021/04/13 06:28:30;;;;;;;8.70;6.33;;;2.00;82.50;;;;;;4984605;28;20644;-71
2021/04/13 06:30:56;;;;;;;11.83;7.27;;;2.10;82.00;;;;;;4983650;28;23044;-70
2021/04/13 06:33:22;;;;;;;10.97;7.40;;;2.20;79.20;;;;;;4989056;28;20252;-70
2021/04/13 06:35:48;;;;;;;8.97;6.90;;;2.30;79.50;;;;;;4986981;28;20192;-69
2021/04/13 06:38:20;;;;;;;8.50;6.63;;;2.50;76.50;;;;;;4985801;28;20230;-67
2021/04/13 06:40:47;;;;;;;9.60;6.53;;;2.60;75.30;;;;;;4985950;28;20371;-66
2021/04/13 06:43:40;;;;;;;10.93;7.10;;;2.80;76.20;;;;;;4986996;28;20692;-69
2021/04/13 06:46:19;;;;;;;9.23;7.47;;;3.00;75.30;;;;;;4970705;28;20244;-67
2021/04/13 06:49:11;;;;;;;11.87;7.83;;;3.20;74.50;;;;;;4987041;28;20315;-68
2021/04/13 06:52:22;;;;;;;12.03;7.47;;;3.30;73.50;;;;;;4959952;28;20267;-69
2021/04/13 06:55:20;;;;;;;12.03;7.13;;;3.60;71.70;;;;;;4953274;28;20232;-69
2021/04/13 06:57:57;;;;;;;9.03;6.37;;;3.70;68.60;;;;;;4947886;28;20239;-69
2021/04/13 07:00:40;;;;;;;11.27;8.20;;;3.90;67.80;;;;;;4974640;28;20230;-70
2021/04/13 07:03:43;;;;;;;9.13;6.87;;;3.90;67.70;;;;;;4983362;28;20686;-71
2021/04/13 07:06:48;;;;;;;10.33;7.53;;;4.10;66.20;;;;;;4969238;28;20288;-70
2021/04/13 07:09:21;;;;;;;13.73;7.67;;;4.20;64.50;;;;;;4983679;28;20282;-70
2021/04/13 07:12:00;;;;;;;9.47;6.77;;;3.90;63.90;;;;;;4986251;28;20208;-70
2021/04/13 07:14:49;;;;;;;13.80;6.93;;;3.90;64.70;;;;;;4970021;28;20200;-68
2021/04/13 07:17:37;;;;;;;11.47;8.30;;;4.10;65.00;;;;;;4960637;28;20227;-69
2021/04/13 07:20:18;;;;;;;10.03;6.63;;;4.40;64.50;;;;;;4981967;28;20256;-70
2021/04/13 07:22:55;;;;;;;9.80;6.43;;;4.40;63.20;;;;;;4983640;28;20793;-70
2021/04/13 07:25:22;;;;;;;9.50;7.20;;;4.50;63.30;;;;;;4979913;28;20234;-70
2021/04/13 07:27:52;;;;;;;9.13;6.57;;;4.80;61.10;;;;;;4984031;28;20231;-71
2021/04/13 07:30:32;;;;;;;9.03;6.53;;;4.80;61.70;;;;;;4979790;28;20231;-70
2021/04/13 07:33:00;;;;;;;13.23;6.83;;;4.90;60.70;;;;;;4964836;28;20204;-70
2021/04/13 07:35:33;;;;;;;11.43;6.77;;;5.00;61.30;;;;;;4988633;28;20632;-69
2021/04/13 07:38:05;;;;;;;8.57;6.47;;;5.20;61.90;;;;;;4985182;28;20230;-69
2021/04/13 07:40:38;;;;;;;11.50;5.97;;;5.40;60.40;;;;;;4969408;28;20585;-70
2021/04/13 07:43:32;;;;;;;8.67;6.67;;;5.50;60.30;;;;;;4978886;28;20244;-70
2021/04/13 07:46:35;;;;;;;10.97;6.83;;;5.60;59.60;;;;;;4970516;28;20235;-69
2021/04/13 07:49:21;;;;;;;9.30;6.37;;;5.80;58.60;;;;;;4984861;28;20359;-69
2021/04/13 07:51:53;;;;;;;9.97;5.97;;;6.00;57.30;;;;;;4986399;28;20323;-69
2021/04/13 07:54:43;;;;;;;11.93;6.87;;;5.90;56.60;;;;;;4986999;28;20813;-69
2021/04/13 07:57:28;;;;;;;10.33;6.03;;;5.80;56.00;;;;;;4984489;28;20243;-69
2021/04/13 08:00:19;;;;;;;8.73;5.93;;;6.00;55.90;;;;;;4972340;28;20611;-69
2021/04/13 08:03:04;;;;;;;7.77;6.60;;;6.10;56.90;;;;;;4991390;28;20199;-70
2021/04/13 08:05:45;;;;;;;10.83;6.50;;;6.30;55.10;;;;;;4989843;28;20215;-68
2021/04/13 08:08:16;;;;;;;7.80;5.93;;;6.50;54.40;;;;;;4990362;28;20220;-69
2021/04/13 08:10:42;;;;;;;10.17;5.50;;;6.50;53.50;;;;;;4979796;28;20232;-69
2021/04/13 08:13:12;;;;;;;27.10;12.50;;;6.50;52.80;;;;;;4974506;28;20270;-69
2021/04/13 08:15:38;;;;;;;6.93;4.80;;;6.40;52.90;;;;;;4993046;28;20232;-69
2021/04/13 08:18:25;;;;;;;8.70;4.83;;;6.60;52.10;;;;;;4974906;28;20782;-69
2021/04/13 08:20:54;;;;;;;7.43;4.73;;;6.80;51.30;;;;;;4981669;28;20717;-70
2021/04/13 08:23:22;;;;;;;6.70;4.30;;;6.90;51.70;;;;;;4986836;28;20204;-69
2021/04/13 08:25:51;;;;;;;6.57;4.87;;;7.10;49.70;;;;;;4983728;28;20235;-69
2021/04/13 08:28:47;;;;;;;6.70;4.10;;;7.20;48.70;;;;;;4989104;28;20228;-69
2021/04/13 08:34:31;;;;;;;4.37;3.70;;;6.90;49.60;;;;;;4990080;28;20235;-67
2021/04/13 08:37:26;;;;;;;4.77;3.70;;;6.70;50.20;;;;;;4971781;28;20578;-68
2021/04/13 08:40:15;;;;;;;4.60;3.60;;;6.80;50.70;;;;;;4984492;28;20224;-66
2021/04/13 08:43:23;;;;;;;2.60;2.20;;;7.00;51.60;;;;;;4986962;28;20327;-67
2021/04/13 08:46:16;;;;;;;4.77;3.87;;;6.80;48.30;;;;;;4986482;28;20247;-67
2021/04/13 08:49:10;;;;;;;3.73;3.17;;;7.00;49.20;;;;;;4971295;28;20237;-67
2021/04/13 08:51:47;;;;;;;5.47;4.27;;;6.90;49.40;;;;;;4967379;28;20236;-68
2021/04/13 08:54:36;;;;;;;2.30;1.70;;;6.90;49.60;;;;;;4984363;28;20232;-68
2021/04/13 08:57:28;;;;;;;2.27;1.30;;;6.90;48.00;;;;;;4968410;28;20278;-68
2021/04/13 08:59:56;;;;;;;2.40;2.00;;;7.10;47.50;;;;;;4967607;28;20244;-67
2021/04/13 09:02:34;;;;;;;2.50;1.23;;;7.40;45.00;;;;;;4968348;28;20224;-68
2021/04/13 09:05:25;;;;;;;2.10;1.80;;;7.70;43.60;;;;;;4978978;28;20262;-68
2021/04/13 09:08:13;;;;;;;0.63;0.63;;;7.60;44.40;;;;;;4991458;28;20227;-68
2021/04/13 09:11:00;;;;;;;4.83;1.53;;;7.50;43.20;;;;;;4984598;28;20188;-68
2021/04/13 09:13:31;;;;;;;1.47;1.30;;;7.30;43.20;;;;;;4967473;28;20236;-68
2021/04/13 09:16:06;;;;;;;2.50;2.27;;;7.30;44.00;;;;;;4989379;28;20228;-68
2021/04/13 09:18:50;;;;;;;2.93;1.33;;;7.30;44.90;;;;;;4989605;28;20226;-68
2021/04/13 09:21:25;;;;;;;1.50;1.40;;;7.10;44.80;;;;;;4986038;28;20718;-67
2021/04/13 09:24:37;;;;;;;2.80;1.20;;;7.10;44.80;;;;;;4968887;28;20259;-67
2021/04/13 09:27:09;;;;;;;1.83;1.33;;;7.20;43.20;;;;;;4984115;28;20231;-68
2021/04/13 09:29:46;;;;;;;1.90;1.20;;;7.40;44.60;;;;;;4971945;28;20228;-67
2021/04/13 09:32:37;;;;;;;2.43;1.33;;;7.30;44.00;;;;;;4986721;28;20228;-66
2021/04/13 09:35:22;;;;;;;1.60;1.50;;;7.50;42.70;;;;;;4979844;28;20232;-69
2021/04/13 09:38:19;;;;;;;1.30;1.20;;;7.80;41.70;;;;;;4962611;28;20228;-67
2021/04/13 09:40:58;;;;;;;1.87;1.37;;;8.20;41.40;;;;;;4982673;28;20224;-67
2021/04/13 09:43:33;;;;;;;1.73;1.27;;;8.40;41.10;;;;;;4967510;28;20319;-67
2021/04/13 09:46:22;;;;;;;1.10;1.10;;;8.50;41.50;;;;;;4986072;28;20682;-67
2021/04/13 09:49:32;;;;;;;1.53;0.83;;;8.70;41.50;;;;;;4963206;28;20367;-66
2021/04/13 09:52:32;;;;;;;0.77;0.77;;;8.50;41.10;;;;;;4958348;28;20232;-70
2021/04/13 09:55:12;;;;;;;2.13;0.90;;;8.70;42.30;;;;;;4986292;28;20666;-68
2021/04/13 09:57:44;;;;;;;1.43;1.03;;;8.80;40.10;;;;;;4983379;28;20589;-68
2021/04/13 10:00:24;;;;;;;0.83;0.77;;;8.30;40.80;;;;;;4980637;28;20236;-69
2021/04/13 10:03:11;;;;;;;1.00;0.90;;;8.60;40.00;;;;;;4984986;28;20244;-69
2021/04/13 10:05:41;;;;;;;1.23;1.13;;;8.70;38.50;;;;;;4987660;28;20204;-69
2021/04/13 10:08:20;;;;;;;3.93;0.93;;;8.80;39.90;;;;;;4986768;28;20235;-68
2021/04/13 10:11:04;;;;;;;1.27;0.93;;;8.80;40.20;;;;;;4983769;28;21214;-69
2021/04/13 10:13:48;;;;;;;0.60;0.60;;;8.40;37.00;;;;;;4984907;28;20716;-66
2021/04/13 10:16:28;;;;;;;1.27;0.50;;;8.40;37.00;;;;;;4981078;28;20315;-75
2021/04/13 10:19:21;;;;;;;0.80;0.80;;;8.20;39.40;;;;;;4987229;28;20252;-74
2021/04/13 10:22:22;;;;;;;1.00;0.90;;;8.10;38.20;;;;;;5001887;23;20243;-74
2021/04/13 10:25:06;;;;;;;0.80;0.80;;;7.90;39.50;;;;;;4995798;23;20234;-74
2021/04/13 10:27:52;;;;;;;0.63;0.63;;;8.00;38.80;;;;;;4958390;28;20234;-73
2021/04/13 10:30:33;;;;;;;0.77;0.77;;;8.20;37.80;;;;;;4959944;28;20253;-72
2021/04/13 10:33:26;;;;;;;0.67;0.67;;;8.70;35.00;;;;;;4962348;28;22711;-72
2021/04/13 10:36:15;;;;;;;0.87;0.70;;;8.90;33.70;;;;;;4962885;28;20556;-73
2021/04/13 10:39:10;;;;;;;0.30;0.30;;;8.70;33.10;;;;;;4992693;22;20237;-73
2021/04/13 10:42:05;;;;;;;1.03;0.80;;;8.60;36.50;;;;;;4968196;23;20316;-73
2021/04/13 10:45:08;;;;;;;0.63;0.63;;;8.70;37.20;;;;;;4940531;28;20213;-73
2021/04/13 10:47:40;;;;;;;1.07;0.80;;;8.50;37.10;;;;;;4964389;28;20225;-73
2021/04/13 10:50:43;;;;;;;1.10;0.93;;;8.60;38.80;;;;;;4964639;28;21090;-74
2021/04/13 10:53:27;;;;;;;0.67;0.67;;;8.60;37.10;;;;;;4971719;28;20263;-74
2021/04/13 10:56:21;;;;;;;0.70;0.70;;;8.50;38.10;;;;;;4966979;28;20228;-74
2021/04/13 10:58:50;;;;;;;1.80;1.10;;;8.60;39.80;;;;;;4951092;28;20235;-74
2021/04/13 11:01:15;;;;;;;1.47;0.90;;;9.00;39.60;;;;;;4969124;28;20248;-73
2021/04/13 11:03:58;;;;;;;0.97;0.70;;;9.30;38.60;;;;;;4970565;28;20659;-73
2021/04/13 11:06:35;;;;;;;1.27;1.17;;;9.30;35.50;;;;;;4968987;28;20233;-73
2021/04/13 11:09:35;;;;;;;1.33;0.87;;;9.40;35.60;;;;;;4967134;28;20189;-73
2021/04/13 11:12:16;;;;;;;1.07;0.97;;;9.80;37.20;;;;;;4963500;28;20298;-73
2021/04/13 11:14:53;;;;;;;1.00;0.90;;;9.90;35.80;;;;;;4968584;28;20181;-72
2021/04/13 11:17:35;;;;;;;1.70;1.07;;;10.10;35.50;;;;;;4970060;28;20289;-73
2021/04/13 11:20:39;;;;;;;1.17;0.97;;;10.30;34.10;;;;;;4965597;28;20670;-74
2021/04/13 11:23:07;;;;;;;1.40;0.80;;;10.00;34.20;;;;;;4982854;23;20237;-73
2021/04/13 11:26:21;;;;;;;0.73;0.73;;;9.80;36.80;;;;;;4962220;28;20236;-74
2021/04/13 11:28:53;;;;;;;2.10;0.87;;;9.30;37.70;;;;;;4973056;28;20255;-74
2021/04/13 11:32:11;;;;;;;1.63;0.93;;;9.20;37.60;;;;;;4965735;28;20192;-74
2021/04/13 11:34:56;;;;;;;2.10;1.23;;;8.90;37.70;;;;;;4964497;28;20491;-74
2021/04/13 11:37:28;;;;;;;2.13;1.27;;;9.00;38.10;;;;;;4968658;28;20246;-74
2021/04/13 11:40:06;;;;;;;2.43;0.87;;;9.10;37.90;;;;;;4965919;28;20227;-73
2021/04/13 11:42:38;;;;;;;2.40;1.37;;;9.00;38.50;;;;;;4981841;28;20352;-73
2021/04/13 11:45:36;;;;;;;1.30;1.20;;;10.00;35.30;;;;;;5012382;23;20325;-73
2021/04/13 11:48:34;;;;;;;1.40;1.30;;;10.00;35.10;;;;;;4989281;28;20232;-74
2021/04/13 11:51:02;;;;;;;2.10;0.97;;;9.60;37.90;;;;;;4988505;28;21374;-74
2021/04/13 11:53:39;;;;;;;1.07;1.07;;;9.40;38.60;;;;;;5015354;28;20268;-74
2021/04/13 11:56:24;;;;;;;0.93;0.93;;;;;;;;;;4997754;28;20221;-73
2021/04/13 11:59:25;;;;;;;1.27;0.97;;;8.90;39.90;;;;;;5004710;28;20248;-74
2021/04/13 12:02:20;;;;;;;0.80;0.80;;;8.70;41.00;;;;;;4987080;28;20254;-73
2021/04/13 12:04:50;;;;;;;0.70;0.60;;;8.50;39.50;;;;;;5016585;28;20222;-73
2021/04/13 12:07:48;;;;;;;1.57;1.00;;;8.40;39.50;;;;;;5005174;28;20243;-75
2021/04/13 12:10:34;;;;;;;1.97;1.07;;;8.50;38.80;;;;;;4988910;28;20318;-74
2021/04/13 12:13:10;;;;;;;1.27;1.00;;;8.60;38.50;;;;;;5006937;28;20235;-74
2021/04/13 12:15:38;;;;;;;1.77;1.10;;;8.60;39.60;;;;;;4989917;28;20223;-74
2021/04/13 12:18:35;;;;;;;2.80;0.80;;;8.70;39.40;;;;;;4987671;28;21390;-74
2021/04/13 12:23:47;;;;;;;1.80;0.90;;;9.50;37.30;;;;;;5013444;22;20292;-74
2021/04/13 12:26:27;;;;;;;0.70;0.70;;;9.40;37.20;;;;;;5008482;28;20302;-74
2021/04/13 12:28:53;;;;;;;0.80;0.80;;;9.30;37.70;;;;;;4987340;28;20239;-75
2021/04/13 12:31:24;;;;;;;0.70;0.70;;;9.30;38.40;;;;;;4990578;28;20322;-71
2021/04/13 12:34:05;;;;;;;0.80;0.73;;;9.20;37.60;;;;;;5007193;28;20329;-71
2021/04/13 12:36:52;;;;;;;0.77;0.77;;;9.10;37.00;;;;;;4985974;28;20231;-71
2021/04/13 12:39:41;;;;;;;2.10;0.60;;;9.40;37.70;;;;;;5006281;28;20244;-71
2021/04/13 12:42:08;;;;;;;2.10;0.67;;;9.50;36.50;;;;;;5009833;28;20357;-71
2021/04/13 12:44:35;;;;;;;2.97;1.00;;;9.60;36.00;;;;;;5013185;28;20223;-71
2021/04/13 12:47:01;;;;;;;0.97;0.97;;;9.60;37.40;;;;;;5010771;28;20326;-72
2021/04/13 12:49:36;;;;;;;0.83;0.70;;;9.90;37.80;;;;;;5010010;28;20270;-71
2021/04/13 12:52:04;;;;;;;1.40;1.07;;;10.20;33.10;;;;;;5007210;28;20326;-71
2021/04/13 12:54:38;;;;;;;2.30;0.63;;;10.40;32.40;;;;;;4986820;28;20227;-71
2021/04/13 12:57:22;;;;;;;0.57;0.57;;;10.40;32.70;;;;;;5007562;28;20557;-71
2021/04/13 12:59:50;;;;;;;1.10;0.83;;;10.50;31.50;;;;;;5011087;28;20191;-71
2021/04/13 13:02:35;;;;;;;0.30;0.30;;;10.10;31.90;;;;;;5007477;28;20215;-71
2021/04/13 13:05:03;;;;;;;0.90;0.73;;;11.00;30.20;;;;;;5010073;28;20243;-71
2021/04/13 13:07:31;;;;;;;0.70;0.70;;;11.10;31.10;;;;;;5014853;28;20230;-71
2021/04/13 13:10:06;;;;;;;0.63;0.60;;;11.00;30.50;;;;;;5018568;28;20285;-70
2021/04/13 13:12:35;;;;;;;1.13;0.77;;;10.60;30.60;;;;;;4999477;28;20271;-70
2021/04/13 13:15:08;;;;;;;1.67;0.87;;;10.50;31.40;;;;;;5014256;28;23276;-70
2021/04/13 13:17:40;;;;;;;1.70;0.63;;;10.30;32.40;;;;;;5003845;28;20196;-70
2021/04/13 13:20:29;;;;;;;1.17;0.80;;;10.30;31.00;;;;;;5008060;28;20222;-71
2021/04/13 13:23:02;;;;;;;0.60;0.60;;;10.40;29.50;;;;;;5010272;28;20326;-69
2021/04/13 13:25:34;;;;;;;1.07;0.60;;;11.00;29.30;;;;;;4996821;28;23259;-70
2021/04/13 13:28:22;;;;;;;0.60;0.47;;;11.70;28.70;;;;;;5015807;28;20228;-70
2021/04/13 13:30:49;;;;;;;1.70;0.67;;;12.90;26.90;;;;;;4992779;28;20230;-70
2021/04/13 13:33:16;;;;;;;1.33;0.47;;;14.20;26.00;;;;;;5020038;28;20296;-69
2021/04/13 13:35:43;;;;;;;0.57;0.50;;;14.70;24.40;;;;;;4997417;28;20561;-70
2021/04/13 13:38:13;;;;;;;0.93;0.50;;;15.70;23.90;;;;;;5012606;28;20548;-70
2021/04/13 13:40:41;;;;;;;0.23;0.23;;;16.30;22.80;;;;;;5014916;28;20303;-70
2021/04/13 13:43:12;;;;;;;0.50;0.40;;;16.70;21.40;;;;;;5017753;28;20248;-71
2021/04/13 13:45:45;;;;;;;1.07;0.80;;;17.20;23.00;;;;;;4995623;28;20320;-72
2021/04/13 13:48:22;;;;;;;0.57;0.40;;;17.90;19.70;;;;;;5015337;28;20246;-71
2021/04/13 13:51:01;;;;;;;2.50;0.97;;;19.00;19.90;;;;;;4995701;28;20246;-71
2021/04/13 13:53:27;;;;;;;2.77;0.70;;;18.20;20.30;;;;;;4988609;28;20228;-71